sensor_id;sensor_type;location;lat;lon;timestamp;P1;durP1;ratioP1;P2;durP2;ratioP2
61385;SDS011;47256;18.904;-99.054;2022-12-08T00:01:29;9.00;;;4.45;;
61385;SDS011;47256;18.904;-99.054;2022-12-08T00:03:58;13.75;;;5.20;;
61385;SDS011;47256;18.904;-99.054;2022-12-08T00:06:28;15.40;;;5.32;;
61385;SDS011;47256;18.904;-99.054;2022-12-08T00:14:17;10.52;;;6.45;;
61385;SDS011;47256;18.904;-99.054;2022-12-08T00:16:45;13.35;;;6.15;;
61385;SDS011;47256;18.904;-99.054;2022-12-08T00:19:12;10.30;;;5.82;;
61385;SDS011;47256;18.904;-99.054;2022-12-08T00:21:39;15.38;;;5.85;;
61385;SDS011;47256;18.904;-99.054;2022-12-08T00:24:06;16.10;;;6.15;;
61385;SDS011;47256;18.904;-99.054;2022-12-08T00:26:35;12.27;;;7.60;;
61385;SDS011;47256;18.904;-99.054;2022-12-08T00:29:03;16.35;;;7.13;;
61385;SDS011;47256;18.904;-99.054;2022-12-08T00:31:32;17.75;;;6.32;;
61385;SDS011;47256;18.904;-99.054;2022-12-08T00:33:59;11.63;;;6.50;;
61385;SDS011;47256;18.904;-99.054;2022-12-08T00:36:27;18.55;;;6.30;;
61385;SDS011;47256;18.904;-99.054;2022-12-08T00:38:55;18.55;;;6.35;;
61385;SDS011;47256;18.904;-99.054;2022-12-08T00:41:24;22.00;;;6.88;;
61385;SDS011;47256;18.904;-99.054;2022-12-08T00:44:36;14.27;;;5.95;;
61385;SDS011;47256;18.904;-99.054;2022-12-08T00:47:04;9.70;;;6.00;;
61385;SDS011;47256;18.904;-99.054;2022-12-08T00:49:33;10.13;;;5.68;;
61385;SDS011;47256;18.904;-99.054;2022-12-08T00:52:00;16.05;;;5.60;;
61385;SDS011;47256;18.904;-99.054;2022-12-08T00:54:28;15.10;;;5.53;;
61385;SDS011;47256;18.904;-99.054;2022-12-08T00:56:57;13.88;;;5.25;;
61385;SDS011;47256;18.904;-99.054;2022-12-08T00:59:25;16.95;;;6.45;;
61385;SDS011;47256;18.904;-99.054;2022-12-08T01:01:54;18.60;;;6.43;;
61385;SDS011;47256;18.904;-99.054;2022-12-08T01:04:23;15.90;;;5.97;;
61385;SDS011;47256;18.904;-99.054;2022-12-08T01:06:52;11.70;;;5.60;;
61385;SDS011;47256;18.904;-99.054;2022-12-08T01:09:21;9.43;;;5.78;;
61385;SDS011;47256;18.904;-99.054;2022-12-08T01:11:54;13.48;;;5.93;;
61385;SDS011;47256;18.904;-99.054;2022-12-08T01:14:25;18.90;;;9.02;;
61385;SDS011;47256;18.904;-99.054;2022-12-08T01:17:06;22.00;;;12.15;;
61385;SDS011;47256;18.904;-99.054;2022-12-08T01:19:38;28.75;;;12.52;;
61385;SDS011;47256;18.904;-99.054;2022-12-08T01:22:12;51.92;;;19.80;;
61385;SDS011;47256;18.904;-99.054;2022-12-08T01:24:40;127.13;;;41.42;;
61385;SDS011;47256;18.904;-99.054;2022-12-08T01:27:07;70.28;;;24.92;;
61385;SDS011;47256;18.904;-99.054;2022-12-08T01:29:35;48.28;;;20.75;;
61385;SDS011;47256;18.904;-99.054;2022-12-08T01:32:03;72.95;;;26.52;;
61385;SDS011;47256;18.904;-99.054;2022-12-08T01:34:31;74.60;;;24.70;;
61385;SDS011;47256;18.904;-99.054;2022-12-08T01:36:58;87.18;;;30.23;;
61385;SDS011;47256;18.904;-99.054;2022-12-08T01:39:26;31.83;;;14.30;;
61385;SDS011;47256;18.904;-99.054;2022-12-08T01:41:55;25.33;;;12.82;;
61385;SDS011;47256;18.904;-99.054;2022-12-08T01:46:53;34.50;;;12.90;;
61385;SDS011;47256;18.904;-99.054;2022-12-08T01:49:25;31.38;;;12.57;;
61385;SDS011;47256;18.904;-99.054;2022-12-08T01:52:06;27.58;;;12.32;;
61385;SDS011;47256;18.904;-99.054;2022-12-08T01:55:07;32.10;;;13.30;;
61385;SDS011;47256;18.904;-99.054;2022-12-08T01:58:04;37.22;;;12.65;;
61385;SDS011;47256;18.904;-99.054;2022-12-08T02:00:42;31.00;;;13.13;;
61385;SDS011;47256;18.904;-99.054;2022-12-08T02:03:20;19.52;;;11.50;;
61385;SDS011;47256;18.904;-99.054;2022-12-08T02:06:01;24.52;;;9.30;;
61385;SDS011;47256;18.904;-99.054;2022-12-08T02:08:29;21.30;;;9.25;;
61385;SDS011;47256;18.904;-99.054;2022-12-08T02:10:59;24.05;;;8.73;;
61385;SDS011;47256;18.904;-99.054;2022-12-08T02:13:27;16.35;;;8.05;;
61385;SDS011;47256;18.904;-99.054;2022-12-08T02:30:17;12.60;;;6.20;;
61385;SDS011;47256;18.904;-99.054;2022-12-08T02:33:01;19.73;;;6.43;;
61385;SDS011;47256;18.904;-99.054;2022-12-08T02:38:44;15.80;;;7.88;;
61385;SDS011;47256;18.904;-99.054;2022-12-08T02:44:16;16.10;;;5.55;;
61385;SDS011;47256;18.904;-99.054;2022-12-08T02:47:02;11.43;;;6.57;;
61385;SDS011;47256;18.904;-99.054;2022-12-08T02:49:35;16.42;;;6.00;;
61385;SDS011;47256;18.904;-99.054;2022-12-08T02:54:43;12.02;;;6.63;;
61385;SDS011;47256;18.904;-99.054;2022-12-08T02:57:21;14.05;;;6.18;;
61385;SDS011;47256;18.904;-99.054;2022-12-08T03:00:16;12.77;;;4.88;;
61385;SDS011;47256;18.904;-99.054;2022-12-08T03:03:05;10.13;;;6.18;;
61385;SDS011;47256;18.904;-99.054;2022-12-08T03:11:33;9.90;;;5.07;;
61385;SDS011;47256;18.904;-99.054;2022-12-08T03:14:17;14.50;;;5.97;;
61385;SDS011;47256;18.904;-99.054;2022-12-08T03:16:48;9.02;;;5.63;;
61385;SDS011;47256;18.904;-99.054;2022-12-08T03:19:26;12.23;;;6.07;;
61385;SDS011;47256;18.904;-99.054;2022-12-08T03:21:59;17.52;;;6.78;;
61385;SDS011;47256;18.904;-99.054;2022-12-08T03:24:31;9.90;;;5.43;;
61385;SDS011;47256;18.904;-99.054;2022-12-08T03:27:09;8.65;;;4.72;;
61385;SDS011;47256;18.904;-99.054;2022-12-08T03:29:46;6.97;;;4.80;;
61385;SDS011;47256;18.904;-99.054;2022-12-08T03:32:22;14.95;;;5.28;;
61385;SDS011;47256;18.904;-99.054;2022-12-08T03:35:03;10.82;;;4.70;;
61385;SDS011;47256;18.904;-99.054;2022-12-08T03:37:36;6.22;;;4.60;;
61385;SDS011;47256;18.904;-99.054;2022-12-08T03:40:08;7.47;;;4.90;;
61385;SDS011;47256;18.904;-99.054;2022-12-08T03:42:39;9.48;;;5.32;;
61385;SDS011;47256;18.904;-99.054;2022-12-08T03:45:08;7.75;;;4.55;;
61385;SDS011;47256;18.904;-99.054;2022-12-08T03:47:38;17.23;;;6.50;;
61385;SDS011;47256;18.904;-99.054;2022-12-08T03:50:06;18.30;;;8.60;;
61385;SDS011;47256;18.904;-99.054;2022-12-08T03:52:34;24.40;;;7.72;;
61385;SDS011;47256;18.904;-99.054;2022-12-08T03:55:01;27.77;;;12.60;;
61385;SDS011;47256;18.904;-99.054;2022-12-08T03:57:30;31.65;;;11.57;;
61385;SDS011;47256;18.904;-99.054;2022-12-08T03:59:57;33.75;;;10.82;;
61385;SDS011;47256;18.904;-99.054;2022-12-08T04:02:25;36.92;;;15.02;;
61385;SDS011;47256;18.904;-99.054;2022-12-08T04:04:53;25.67;;;13.20;;
61385;SDS011;47256;18.904;-99.054;2022-12-08T04:07:21;32.50;;;14.50;;
61385;SDS011;47256;18.904;-99.054;2022-12-08T04:09:49;44.90;;;16.08;;
61385;SDS011;47256;18.904;-99.054;2022-12-08T04:12:16;34.17;;;16.17;;
61385;SDS011;47256;18.904;-99.054;2022-12-08T04:14:44;43.80;;;18.92;;
61385;SDS011;47256;18.904;-99.054;2022-12-08T04:17:12;37.70;;;16.13;;
61385;SDS011;47256;18.904;-99.054;2022-12-08T04:19:39;43.50;;;17.55;;
61385;SDS011;47256;18.904;-99.054;2022-12-08T04:22:07;56.95;;;16.15;;
61385;SDS011;47256;18.904;-99.054;2022-12-08T04:31:15;31.58;;;13.18;;
61385;SDS011;47256;18.904;-99.054;2022-12-08T04:33:43;32.03;;;15.68;;
61385;SDS011;47256;18.904;-99.054;2022-12-08T04:36:11;44.40;;;15.45;;
61385;SDS011;47256;18.904;-99.054;2022-12-08T04:38:39;47.22;;;17.95;;
61385;SDS011;47256;18.904;-99.054;2022-12-08T04:41:07;43.78;;;16.77;;
61385;SDS011;47256;18.904;-99.054;2022-12-08T04:43:36;43.85;;;18.10;;
61385;SDS011;47256;18.904;-99.054;2022-12-08T04:46:07;39.90;;;16.40;;
61385;SDS011;47256;18.904;-99.054;2022-12-08T04:48:36;37.35;;;15.82;;
61385;SDS011;47256;18.904;-99.054;2022-12-08T04:51:04;41.78;;;16.23;;
61385;SDS011;47256;18.904;-99.054;2022-12-08T04:53:32;37.63;;;14.38;;
61385;SDS011;47256;18.904;-99.054;2022-12-08T04:55:59;36.50;;;14.63;;
61385;SDS011;47256;18.904;-99.054;2022-12-08T04:58:27;32.65;;;13.18;;
61385;SDS011;47256;18.904;-99.054;2022-12-08T05:00:55;25.40;;;11.73;;
61385;SDS011;47256;18.904;-99.054;2022-12-08T05:03:22;32.83;;;13.38;;
61385;SDS011;47256;18.904;-99.054;2022-12-08T05:05:49;31.50;;;13.30;;
61385;SDS011;47256;18.904;-99.054;2022-12-08T05:08:17;26.05;;;12.15;;
61385;SDS011;47256;18.904;-99.054;2022-12-08T05:10:44;26.27;;;13.05;;
61385;SDS011;47256;18.904;-99.054;2022-12-08T05:13:12;22.10;;;11.68;;
61385;SDS011;47256;18.904;-99.054;2022-12-08T05:15:39;28.38;;;12.50;;
61385;SDS011;47256;18.904;-99.054;2022-12-08T05:18:06;28.60;;;11.93;;
61385;SDS011;47256;18.904;-99.054;2022-12-08T05:20:34;19.90;;;10.98;;
61385;SDS011;47256;18.904;-99.054;2022-12-08T05:23:01;26.20;;;11.30;;
61385;SDS011;47256;18.904;-99.054;2022-12-08T05:25:29;26.88;;;10.48;;
61385;SDS011;47256;18.904;-99.054;2022-12-08T05:27:57;18.25;;;10.27;;
61385;SDS011;47256;18.904;-99.054;2022-12-08T05:30:24;17.65;;;9.85;;
61385;SDS011;47256;18.904;-99.054;2022-12-08T05:32:52;16.52;;;8.90;;
61385;SDS011;47256;18.904;-99.054;2022-12-08T05:35:19;22.63;;;9.55;;
61385;SDS011;47256;18.904;-99.054;2022-12-08T05:37:47;16.25;;;10.18;;
61385;SDS011;47256;18.904;-99.054;2022-12-08T05:40:14;17.67;;;9.55;;
61385;SDS011;47256;18.904;-99.054;2022-12-08T05:42:43;23.95;;;9.82;;
61385;SDS011;47256;18.904;-99.054;2022-12-08T05:45:10;22.67;;;9.18;;
61385;SDS011;47256;18.904;-99.054;2022-12-08T05:47:38;15.20;;;9.15;;
61385;SDS011;47256;18.904;-99.054;2022-12-08T05:50:05;20.45;;;9.18;;
61385;SDS011;47256;18.904;-99.054;2022-12-08T05:52:33;20.98;;;7.38;;
61385;SDS011;47256;18.904;-99.054;2022-12-08T05:55:00;14.02;;;8.10;;
61385;SDS011;47256;18.904;-99.054;2022-12-08T05:57:28;18.52;;;9.45;;
61385;SDS011;47256;18.904;-99.054;2022-12-08T05:59:55;15.63;;;9.10;;
61385;SDS011;47256;18.904;-99.054;2022-12-08T06:02:25;13.63;;;8.65;;
61385;SDS011;47256;18.904;-99.054;2022-12-08T06:04:52;20.33;;;8.43;;
61385;SDS011;47256;18.904;-99.054;2022-12-08T06:07:20;15.90;;;7.55;;
61385;SDS011;47256;18.904;-99.054;2022-12-08T06:09:47;18.27;;;7.63;;
61385;SDS011;47256;18.904;-99.054;2022-12-08T06:12:15;15.10;;;8.18;;
61385;SDS011;47256;18.904;-99.054;2022-12-08T06:14:42;18.88;;;7.55;;
61385;SDS011;47256;18.904;-99.054;2022-12-08T06:17:10;13.38;;;7.25;;
61385;SDS011;47256;18.904;-99.054;2022-12-08T06:19:37;20.88;;;9.07;;
61385;SDS011;47256;18.904;-99.054;2022-12-08T06:22:04;16.85;;;7.95;;
61385;SDS011;47256;18.904;-99.054;2022-12-08T06:24:31;15.90;;;8.35;;
61385;SDS011;47256;18.904;-99.054;2022-12-08T06:26:59;18.02;;;7.40;;
61385;SDS011;47256;18.904;-99.054;2022-12-08T06:29:26;17.17;;;7.28;;
61385;SDS011;47256;18.904;-99.054;2022-12-08T06:31:55;15.20;;;7.28;;
61385;SDS011;47256;18.904;-99.054;2022-12-08T06:34:22;16.05;;;6.97;;
61385;SDS011;47256;18.904;-99.054;2022-12-08T06:36:49;14.95;;;6.95;;
61385;SDS011;47256;18.904;-99.054;2022-12-08T06:39:16;14.60;;;7.10;;
61385;SDS011;47256;18.904;-99.054;2022-12-08T06:41:44;14.38;;;7.60;;
61385;SDS011;47256;18.904;-99.054;2022-12-08T06:44:29;25.38;;;7.72;;
61385;SDS011;47256;18.904;-99.054;2022-12-08T06:46:57;14.10;;;7.50;;
61385;SDS011;47256;18.904;-99.054;2022-12-08T06:49:24;16.15;;;7.30;;
61385;SDS011;47256;18.904;-99.054;2022-12-08T06:51:52;10.82;;;6.85;;
61385;SDS011;47256;18.904;-99.054;2022-12-08T06:54:19;11.95;;;6.38;;
61385;SDS011;47256;18.904;-99.054;2022-12-08T06:56:46;10.45;;;6.57;;
61385;SDS011;47256;18.904;-99.054;2022-12-08T06:59:14;14.85;;;6.38;;
61385;SDS011;47256;18.904;-99.054;2022-12-08T07:01:44;12.52;;;7.03;;
61385;SDS011;47256;18.904;-99.054;2022-12-08T07:04:12;12.35;;;6.38;;
61385;SDS011;47256;18.904;-99.054;2022-12-08T07:06:39;13.20;;;7.20;;
61385;SDS011;47256;18.904;-99.054;2022-12-08T07:09:06;11.82;;;6.50;;
61385;SDS011;47256;18.904;-99.054;2022-12-08T07:11:34;12.30;;;6.88;;
61385;SDS011;47256;18.904;-99.054;2022-12-08T07:14:03;21.85;;;7.38;;
61385;SDS011;47256;18.904;-99.054;2022-12-08T07:16:30;18.48;;;7.45;;
61385;SDS011;47256;18.904;-99.054;2022-12-08T07:18:58;15.25;;;6.43;;
61385;SDS011;47256;18.904;-99.054;2022-12-08T07:21:25;14.48;;;6.53;;
61385;SDS011;47256;18.904;-99.054;2022-12-08T07:23:53;12.27;;;7.25;;
61385;SDS011;47256;18.904;-99.054;2022-12-08T07:26:20;19.95;;;8.25;;
61385;SDS011;47256;18.904;-99.054;2022-12-08T07:28:48;15.52;;;6.45;;
61385;SDS011;47256;18.904;-99.054;2022-12-08T07:31:19;13.25;;;6.78;;
61385;SDS011;47256;18.904;-99.054;2022-12-08T07:33:49;14.38;;;7.32;;
61385;SDS011;47256;18.904;-99.054;2022-12-08T07:36:16;11.13;;;6.20;;
61385;SDS011;47256;18.904;-99.054;2022-12-08T07:38:44;14.35;;;6.75;;
61385;SDS011;47256;18.904;-99.054;2022-12-08T07:41:13;11.70;;;6.57;;
61385;SDS011;47256;18.904;-99.054;2022-12-08T07:43:45;11.88;;;6.68;;
61385;SDS011;47256;18.904;-99.054;2022-12-08T07:46:14;8.93;;;6.15;;
61385;SDS011;47256;18.904;-99.054;2022-12-08T07:48:43;18.10;;;6.47;;
61385;SDS011;47256;18.904;-99.054;2022-12-08T07:51:11;10.30;;;6.20;;
61385;SDS011;47256;18.904;-99.054;2022-12-08T07:53:40;14.50;;;6.68;;
61385;SDS011;47256;18.904;-99.054;2022-12-08T07:56:09;8.73;;;5.00;;
61385;SDS011;47256;18.904;-99.054;2022-12-08T07:58:38;15.52;;;6.55;;
61385;SDS011;47256;18.904;-99.054;2022-12-08T08:01:14;10.75;;;6.47;;
61385;SDS011;47256;18.904;-99.054;2022-12-08T08:03:52;8.25;;;5.32;;
61385;SDS011;47256;18.904;-99.054;2022-12-08T08:06:20;11.75;;;6.22;;
61385;SDS011;47256;18.904;-99.054;2022-12-08T08:08:48;12.93;;;6.45;;
61385;SDS011;47256;18.904;-99.054;2022-12-08T08:11:15;10.05;;;5.82;;
61385;SDS011;47256;18.904;-99.054;2022-12-08T08:13:43;17.70;;;8.52;;
61385;SDS011;47256;18.904;-99.054;2022-12-08T08:16:10;11.63;;;6.45;;
61385;SDS011;47256;18.904;-99.054;2022-12-08T08:18:41;16.95;;;7.82;;
61385;SDS011;47256;18.904;-99.054;2022-12-08T08:21:11;16.42;;;6.63;;
61385;SDS011;47256;18.904;-99.054;2022-12-08T08:23:38;18.92;;;7.55;;
61385;SDS011;47256;18.904;-99.054;2022-12-08T08:26:05;10.30;;;4.90;;
61385;SDS011;47256;18.904;-99.054;2022-12-08T08:28:33;10.23;;;5.10;;
61385;SDS011;47256;18.904;-99.054;2022-12-08T08:31:05;15.73;;;5.88;;
61385;SDS011;47256;18.904;-99.054;2022-12-08T08:33:32;15.50;;;5.68;;
61385;SDS011;47256;18.904;-99.054;2022-12-08T08:35:59;14.65;;;6.07;;
61385;SDS011;47256;18.904;-99.054;2022-12-08T08:38:27;9.13;;;5.57;;
61385;SDS011;47256;18.904;-99.054;2022-12-08T08:40:56;11.10;;;6.65;;
61385;SDS011;47256;18.904;-99.054;2022-12-08T08:43:23;14.25;;;5.85;;
61385;SDS011;47256;18.904;-99.054;2022-12-08T08:45:57;9.65;;;4.82;;
61385;SDS011;47256;18.904;-99.054;2022-12-08T08:48:26;16.40;;;4.95;;
61385;SDS011;47256;18.904;-99.054;2022-12-08T08:50:55;8.60;;;5.18;;
61385;SDS011;47256;18.904;-99.054;2022-12-08T08:53:23;9.30;;;5.20;;
61385;SDS011;47256;18.904;-99.054;2022-12-08T08:55:51;10.05;;;5.10;;
61385;SDS011;47256;18.904;-99.054;2022-12-08T08:58:18;8.85;;;4.53;;
61385;SDS011;47256;18.904;-99.054;2022-12-08T09:00:46;8.48;;;5.57;;
61385;SDS011;47256;18.904;-99.054;2022-12-08T09:03:13;8.80;;;4.18;;
61385;SDS011;47256;18.904;-99.054;2022-12-08T09:05:40;8.10;;;4.75;;
61385;SDS011;47256;18.904;-99.054;2022-12-08T09:08:08;19.92;;;5.28;;
61385;SDS011;47256;18.904;-99.054;2022-12-08T09:10:36;10.35;;;4.40;;
61385;SDS011;47256;18.904;-99.054;2022-12-08T09:13:03;10.00;;;5.00;;
61385;SDS011;47256;18.904;-99.054;2022-12-08T09:15:32;9.25;;;5.22;;
61385;SDS011;47256;18.904;-99.054;2022-12-08T09:17:59;12.18;;;4.97;;
61385;SDS011;47256;18.904;-99.054;2022-12-08T09:20:27;20.95;;;5.90;;
61385;SDS011;47256;18.904;-99.054;2022-12-08T09:22:54;9.05;;;4.97;;
61385;SDS011;47256;18.904;-99.054;2022-12-08T09:25:21;7.93;;;4.45;;
61385;SDS011;47256;18.904;-99.054;2022-12-08T09:27:48;9.50;;;4.88;;
61385;SDS011;47256;18.904;-99.054;2022-12-08T09:30:18;11.85;;;5.10;;
61385;SDS011;47256;18.904;-99.054;2022-12-08T09:32:46;9.65;;;5.35;;
61385;SDS011;47256;18.904;-99.054;2022-12-08T09:35:14;9.90;;;5.88;;
61385;SDS011;47256;18.904;-99.054;2022-12-08T09:37:41;15.27;;;6.18;;
61385;SDS011;47256;18.904;-99.054;2022-12-08T09:40:10;13.73;;;5.30;;
61385;SDS011;47256;18.904;-99.054;2022-12-08T09:43:00;11.98;;;5.90;;
61385;SDS011;47256;18.904;-99.054;2022-12-08T09:45:41;8.60;;;5.30;;
61385;SDS011;47256;18.904;-99.054;2022-12-08T09:48:11;8.98;;;5.10;;
61385;SDS011;47256;18.904;-99.054;2022-12-08T09:50:55;6.88;;;4.03;;
61385;SDS011;47256;18.904;-99.054;2022-12-08T09:53:26;10.15;;;4.90;;
61385;SDS011;47256;18.904;-99.054;2022-12-08T09:56:26;7.28;;;4.15;;
61385;SDS011;47256;18.904;-99.054;2022-12-08T10:01:33;6.95;;;4.10;;
61385;SDS011;47256;18.904;-99.054;2022-12-08T10:04:16;8.82;;;4.45;;
61385;SDS011;47256;18.904;-99.054;2022-12-08T10:06:59;8.93;;;4.53;;
61385;SDS011;47256;18.904;-99.054;2022-12-08T10:09:44;6.82;;;4.07;;
61385;SDS011;47256;18.904;-99.054;2022-12-08T10:12:53;6.35;;;4.32;;
61385;SDS011;47256;18.904;-99.054;2022-12-08T10:18:31;9.00;;;5.00;;
61385;SDS011;47256;18.904;-99.054;2022-12-08T10:21:14;7.28;;;4.90;;
61385;SDS011;47256;18.904;-99.054;2022-12-08T10:23:50;11.77;;;4.50;;
61385;SDS011;47256;18.904;-99.054;2022-12-08T10:28:50;11.20;;;5.25;;
61385;SDS011;47256;18.904;-99.054;2022-12-08T10:31:20;8.50;;;4.55;;
61385;SDS011;47256;18.904;-99.054;2022-12-08T10:33:53;12.00;;;4.57;;
61385;SDS011;47256;18.904;-99.054;2022-12-08T10:44:52;7.85;;;4.35;;
61385;SDS011;47256;18.904;-99.054;2022-12-08T10:47:23;7.30;;;4.72;;
61385;SDS011;47256;18.904;-99.054;2022-12-08T10:50:35;11.32;;;4.65;;
61385;SDS011;47256;18.904;-99.054;2022-12-08T10:52:56;7.13;;;4.55;;
61385;SDS011;47256;18.904;-99.054;2022-12-08T10:55:23;7.65;;;4.00;;
61385;SDS011;47256;18.904;-99.054;2022-12-08T10:57:51;6.88;;;3.92;;
61385;SDS011;47256;18.904;-99.054;2022-12-08T11:00:27;4.78;;;3.10;;
61385;SDS011;47256;18.904;-99.054;2022-12-08T11:02:59;6.67;;;4.43;;
61385;SDS011;47256;18.904;-99.054;2022-12-08T11:05:30;18.02;;;4.38;;
61385;SDS011;47256;18.904;-99.054;2022-12-08T11:08:00;4.28;;;3.45;;
61385;SDS011;47256;18.904;-99.054;2022-12-08T11:10:31;8.38;;;4.00;;
61385;SDS011;47256;18.904;-99.054;2022-12-08T11:13:04;7.88;;;4.20;;
61385;SDS011;47256;18.904;-99.054;2022-12-08T11:15:38;6.38;;;4.22;;
61385;SDS011;47256;18.904;-99.054;2022-12-08T11:18:08;5.57;;;3.75;;
61385;SDS011;47256;18.904;-99.054;2022-12-08T11:20:54;8.95;;;4.28;;
61385;SDS011;47256;18.904;-99.054;2022-12-08T11:23:48;20.92;;;5.22;;
61385;SDS011;47256;18.904;-99.054;2022-12-08T11:26:22;10.75;;;3.85;;
61385;SDS011;47256;18.904;-99.054;2022-12-08T11:28:59;15.98;;;5.88;;
61385;SDS011;47256;18.904;-99.054;2022-12-08T11:31:31;7.28;;;4.28;;
61385;SDS011;47256;18.904;-99.054;2022-12-08T11:34:04;7.72;;;4.53;;
61385;SDS011;47256;18.904;-99.054;2022-12-08T11:36:35;14.40;;;5.07;;
61385;SDS011;47256;18.904;-99.054;2022-12-08T11:39:05;9.65;;;4.18;;
61385;SDS011;47256;18.904;-99.054;2022-12-08T11:41:37;8.20;;;4.60;;
61385;SDS011;47256;18.904;-99.054;2022-12-08T11:47:11;7.85;;;3.78;;
61385;SDS011;47256;18.904;-99.054;2022-12-08T11:49:45;22.98;;;5.43;;
61385;SDS011;47256;18.904;-99.054;2022-12-08T12:00:50;12.50;;;4.07;;
61385;SDS011;47256;18.904;-99.054;2022-12-08T12:03:26;14.98;;;4.13;;
61385;SDS011;47256;18.904;-99.054;2022-12-08T12:12:57;6.95;;;3.90;;
61385;SDS011;47256;18.904;-99.054;2022-12-08T12:18:00;11.13;;;4.25;;
61385;SDS011;47256;18.904;-99.054;2022-12-08T12:23:04;14.15;;;4.50;;
61385;SDS011;47256;18.904;-99.054;2022-12-08T12:26:04;4.65;;;3.63;;
61385;SDS011;47256;18.904;-99.054;2022-12-08T12:28:57;6.47;;;3.40;;
61385;SDS011;47256;18.904;-99.054;2022-12-08T12:31:29;32.28;;;5.35;;
61385;SDS011;47256;18.904;-99.054;2022-12-08T12:34:05;6.38;;;3.50;;
61385;SDS011;47256;18.904;-99.054;2022-12-08T12:43:23;9.25;;;3.63;;
61385;SDS011;47256;18.904;-99.054;2022-12-08T12:45:23;8.10;;;4.43;;
61385;SDS011;47256;18.904;-99.054;2022-12-08T12:53:02;8.13;;;3.70;;
61385;SDS011;47256;18.904;-99.054;2022-12-08T13:03:41;20.25;;;5.88;;
61385;SDS011;47256;18.904;-99.054;2022-12-08T13:06:12;24.17;;;5.95;;
61385;SDS011;47256;18.904;-99.054;2022-12-08T13:08:51;11.93;;;5.45;;
61385;SDS011;47256;18.904;-99.054;2022-12-08T13:11:21;17.42;;;5.45;;
61385;SDS011;47256;18.904;-99.054;2022-12-08T13:13:56;19.83;;;4.63;;
61385;SDS011;47256;18.904;-99.054;2022-12-08T13:16:33;17.25;;;5.88;;
61385;SDS011;47256;18.904;-99.054;2022-12-08T13:19:04;20.58;;;6.07;;
61385;SDS011;47256;18.904;-99.054;2022-12-08T13:21:41;38.10;;;6.22;;
61385;SDS011;47256;18.904;-99.054;2022-12-08T13:29:31;29.23;;;7.50;;
61385;SDS011;47256;18.904;-99.054;2022-12-08T13:32:00;38.42;;;12.93;;
61385;SDS011;47256;18.904;-99.054;2022-12-08T13:34:37;18.55;;;6.43;;
61385;SDS011;47256;18.904;-99.054;2022-12-08T13:37:30;10.57;;;5.22;;
61385;SDS011;47256;18.904;-99.054;2022-12-08T13:45:25;22.98;;;7.43;;
61385;SDS011;47256;18.904;-99.054;2022-12-08T13:47:55;25.33;;;7.10;;
61385;SDS011;47256;18.904;-99.054;2022-12-08T13:51:01;20.73;;;6.95;;
61385;SDS011;47256;18.904;-99.054;2022-12-08T13:53:42;17.25;;;7.32;;
61385;SDS011;47256;18.904;-99.054;2022-12-08T13:56:20;22.83;;;7.45;;
61385;SDS011;47256;18.904;-99.054;2022-12-08T13:58:48;22.67;;;8.32;;
61385;SDS011;47256;18.904;-99.054;2022-12-08T14:01:22;22.33;;;6.80;;
61385;SDS011;47256;18.904;-99.054;2022-12-08T14:03:51;25.90;;;7.40;;
61385;SDS011;47256;18.904;-99.054;2022-12-08T14:06:28;24.05;;;6.82;;
61385;SDS011;47256;18.904;-99.054;2022-12-08T14:09:09;12.15;;;6.72;;
61385;SDS011;47256;18.904;-99.054;2022-12-08T14:11:44;20.40;;;5.97;;
61385;SDS011;47256;18.904;-99.054;2022-12-08T14:14:18;11.88;;;5.38;;
61385;SDS011;47256;18.904;-99.054;2022-12-08T14:16:59;13.38;;;6.47;;
61385;SDS011;47256;18.904;-99.054;2022-12-08T14:19:30;29.65;;;7.15;;
61385;SDS011;47256;18.904;-99.054;2022-12-08T14:22:21;37.80;;;13.48;;
61385;SDS011;47256;18.904;-99.054;2022-12-08T14:27:20;30.48;;;10.23;;
61385;SDS011;47256;18.904;-99.054;2022-12-08T14:30:05;27.67;;;11.32;;
61385;SDS011;47256;18.904;-99.054;2022-12-08T14:33:00;30.30;;;9.57;;
61385;SDS011;47256;18.904;-99.054;2022-12-08T14:35:32;34.95;;;11.95;;
61385;SDS011;47256;18.904;-99.054;2022-12-08T14:38:03;25.23;;;9.60;;
61385;SDS011;47256;18.904;-99.054;2022-12-08T14:40:36;20.70;;;9.43;;
61385;SDS011;47256;18.904;-99.054;2022-12-08T14:48:19;24.95;;;8.80;;
61385;SDS011;47256;18.904;-99.054;2022-12-08T14:53:41;32.13;;;10.57;;
61385;SDS011;47256;18.904;-99.054;2022-12-08T14:56:20;23.40;;;10.07;;
61385;SDS011;47256;18.904;-99.054;2022-12-08T15:01:31;21.02;;;7.18;;
61385;SDS011;47256;18.904;-99.054;2022-12-08T15:09:27;20.70;;;7.00;;
61385;SDS011;47256;18.904;-99.054;2022-12-08T15:12:03;14.63;;;7.65;;
61385;SDS011;47256;18.904;-99.054;2022-12-08T15:14:33;20.55;;;6.43;;
61385;SDS011;47256;18.904;-99.054;2022-12-08T15:17:02;14.15;;;6.25;;
61385;SDS011;47256;18.904;-99.054;2022-12-08T15:19:54;11.68;;;6.45;;
61385;SDS011;47256;18.904;-99.054;2022-12-08T15:22:24;9.70;;;5.63;;
61385;SDS011;47256;18.904;-99.054;2022-12-08T15:24:52;9.85;;;5.60;;
61385;SDS011;47256;18.904;-99.054;2022-12-08T15:27:21;12.98;;;5.07;;
61385;SDS011;47256;18.904;-99.054;2022-12-08T15:29:50;10.82;;;5.47;;
61385;SDS011;47256;18.904;-99.054;2022-12-08T15:32:19;13.02;;;6.13;;
61385;SDS011;47256;18.904;-99.054;2022-12-08T15:34:48;14.50;;;6.97;;
61385;SDS011;47256;18.904;-99.054;2022-12-08T15:37:23;10.63;;;5.63;;
61385;SDS011;47256;18.904;-99.054;2022-12-08T15:39:53;19.77;;;5.82;;
61385;SDS011;47256;18.904;-99.054;2022-12-08T15:42:21;18.25;;;6.35;;
61385;SDS011;47256;18.904;-99.054;2022-12-08T15:44:48;9.23;;;5.60;;
61385;SDS011;47256;18.904;-99.054;2022-12-08T15:47:18;8.35;;;4.68;;
61385;SDS011;47256;18.904;-99.054;2022-12-08T15:49:49;16.05;;;5.70;;
61385;SDS011;47256;18.904;-99.054;2022-12-08T15:52:21;12.38;;;5.70;;
61385;SDS011;47256;18.904;-99.054;2022-12-08T15:54:49;9.73;;;5.53;;
61385;SDS011;47256;18.904;-99.054;2022-12-08T15:59:49;12.18;;;6.22;;
61385;SDS011;47256;18.904;-99.054;2022-12-08T16:02:17;12.98;;;6.60;;
61385;SDS011;47256;18.904;-99.054;2022-12-08T16:04:46;11.68;;;5.63;;
61385;SDS011;47256;18.904;-99.054;2022-12-08T16:07:27;8.40;;;5.70;;
61385;SDS011;47256;18.904;-99.054;2022-12-08T16:09:55;11.20;;;6.22;;
61385;SDS011;47256;18.904;-99.054;2022-12-08T16:12:23;11.45;;;6.65;;
61385;SDS011;47256;18.904;-99.054;2022-12-08T16:15:11;10.38;;;6.43;;
61385;SDS011;47256;18.904;-99.054;2022-12-08T16:17:40;10.45;;;5.55;;
61385;SDS011;47256;18.904;-99.054;2022-12-08T16:20:15;15.32;;;6.38;;
61385;SDS011;47256;18.904;-99.054;2022-12-08T16:22:43;21.10;;;6.55;;
61385;SDS011;47256;18.904;-99.054;2022-12-08T16:25:11;15.15;;;7.10;;
61385;SDS011;47256;18.904;-99.054;2022-12-08T16:27:39;24.77;;;8.13;;
61385;SDS011;47256;18.904;-99.054;2022-12-08T16:30:08;16.52;;;6.55;;
61385;SDS011;47256;18.904;-99.054;2022-12-08T16:32:40;17.20;;;6.78;;
61385;SDS011;47256;18.904;-99.054;2022-12-08T16:35:07;13.95;;;6.80;;
61385;SDS011;47256;18.904;-99.054;2022-12-08T16:37:37;9.13;;;6.65;;
61385;SDS011;47256;18.904;-99.054;2022-12-08T16:40:05;12.27;;;5.88;;
61385;SDS011;47256;18.904;-99.054;2022-12-08T16:42:34;10.77;;;6.28;;
61385;SDS011;47256;18.904;-99.054;2022-12-08T16:45:16;10.88;;;5.68;;
61385;SDS011;47256;18.904;-99.054;2022-12-08T16:47:50;8.43;;;5.82;;
61385;SDS011;47256;18.904;-99.054;2022-12-08T16:50:22;15.75;;;6.63;;